createdAt,value
2019-02-09T00:00:00.722Z,14.16
2019-02-09T00:02:35.278Z,13.85
2019-02-09T00:05:06.026Z,13.94
2019-02-09T00:07:36.851Z,13.81
2019-02-09T00:10:08.097Z,13.69
2019-02-09T00:12:39.542Z,13.59
2019-02-09T00:15:09.885Z,14.05
2019-02-09T00:17:42.697Z,13.79
2019-02-09T00:20:13.100Z,13.52
2019-02-09T00:22:43.720Z,13.88
2019-02-09T00:25:14.446Z,13.63
2019-02-09T00:27:45.184Z,13.42
2019-02-09T00:30:17.851Z,13.14
2019-02-09T00:32:50.418Z,13.14
2019-02-09T00:35:21.551Z,13.13
2019-02-09T00:37:52.281Z,12.91
2019-02-09T00:40:23.631Z,13.32
2019-02-09T00:42:56.295Z,13.43
2019-02-09T00:45:26.869Z,13.31
2019-02-09T00:48:00.388Z,13.63
2019-02-09T00:50:31.031Z,13.15
2019-02-09T00:53:02.549Z,13.01
2019-02-09T00:55:33.165Z,12.83
2019-02-09T00:58:03.830Z,12.85
2019-02-09T01:00:34.159Z,13.12
2019-02-09T01:03:07.280Z,12.84
2019-02-09T01:05:43.238Z,13.09
2019-02-09T01:08:15.693Z,12.91
2019-02-09T01:10:46.493Z,12.79
2019-02-09T01:13:18.478Z,12.76
2019-02-09T01:15:50.241Z,13.43
2019-02-09T01:18:21.916Z,13.06
2019-02-09T01:20:52.568Z,12.79
2019-02-09T01:23:25.911Z,12.87
2019-02-09T01:25:58.626Z,13.46
2019-02-09T01:28:29.027Z,12.80
2019-02-09T01:30:59.835Z,12.79
2019-02-09T01:33:30.880Z,13.12
2019-02-09T01:36:01.100Z,12.67
2019-02-09T01:38:31.354Z,12.74
2019-02-09T01:41:03.184Z,13.48
2019-02-09T01:43:37.321Z,13.34
2019-02-09T01:46:07.771Z,13.59
2019-02-09T01:48:38.079Z,13.56
2019-02-09T01:51:09.938Z,13.27
2019-02-09T01:53:42.764Z,13.33
2019-02-09T01:56:13.579Z,13.46
2019-02-09T01:58:44.335Z,13.36
2019-02-09T02:01:16.408Z,13.34
2019-02-09T02:03:47.073Z,13.69
2019-02-09T02:06:18.380Z,13.17
2019-02-09T02:08:51.945Z,13.67
2019-02-09T02:11:23.065Z,13.82
2019-02-09T02:13:54.176Z,14.01
2019-02-09T02:16:25.454Z,14.08
2019-02-09T02:18:56.643Z,14.28
2019-02-09T02:21:28.154Z,14.26
2019-02-09T02:24:01.204Z,14.26
2019-02-09T02:26:32.296Z,14.17
2019-02-09T02:29:02.466Z,14.57
2019-02-09T02:31:32.778Z,14.13
2019-02-09T02:34:03.480Z,14.75
2019-02-09T02:36:35.236Z,14.77
2019-02-09T02:39:10.817Z,14.58
2019-02-09T02:41:41.353Z,14.73
2019-02-09T02:44:15.948Z,13.96
2019-02-09T02:46:47.445Z,14.51
2019-02-09T02:49:19.034Z,14.63
2019-02-09T02:51:49.995Z,14.58
2019-02-09T02:54:21.241Z,14.93
2019-02-09T02:56:51.928Z,14.46
2019-02-09T02:59:22.219Z,14.81
2019-02-09T03:01:53.465Z,14.59
2019-02-09T03:04:24.061Z,14.41
2019-02-09T03:06:54.785Z,14.20
2019-02-09T03:09:26.043Z,14.35
2019-02-09T03:11:59.695Z,14.96
2019-02-09T03:14:30.934Z,14.67
2019-02-09T03:17:01.598Z,14.55
2019-02-09T03:19:32.324Z,14.99
2019-02-09T03:22:02.525Z,15.06
2019-02-09T03:24:32.756Z,14.41
2019-02-09T03:27:05.797Z,13.38
2019-02-09T03:29:36.010Z,12.78
2019-02-09T03:32:06.214Z,13.27
2019-02-09T03:34:37.788Z,13.71
2019-02-09T03:37:08.324Z,13.33
2019-02-09T03:39:39.977Z,13.78
2019-02-09T03:42:11.177Z,13.33
2019-02-09T03:44:43.203Z,13.67
2019-02-09T03:47:15.389Z,13.68
2019-02-09T03:49:47.373Z,14.07
2019-02-09T03:52:18.435Z,13.99
2019-02-09T03:54:50.102Z,14.19
2019-02-09T03:57:21.814Z,13.92
2019-02-09T03:59:51.995Z,13.13
2019-02-09T04:02:24.304Z,12.17
2019-02-09T04:04:54.493Z,12.08
2019-02-09T04:07:25.205Z,12.81
2019-02-09T04:09:57.664Z,12.15
2019-02-09T04:12:30.262Z,12.45
2019-02-09T04:15:02.799Z,13.04
2019-02-09T04:17:35.479Z,12.65
2019-02-09T04:20:10.162Z,12.95
2019-02-09T04:22:41.717Z,13.51
2019-02-09T04:25:13.932Z,13.99
2019-02-09T04:27:45.833Z,13.35
2019-02-09T04:30:20.446Z,13.23
2019-02-09T04:32:52.390Z,13.13
2019-02-09T04:35:24.921Z,12.29
2019-02-09T04:37:55.498Z,12.41
2019-02-09T04:40:29.460Z,13.04
2019-02-09T04:43:00.964Z,13.17
2019-02-09T04:45:34.514Z,12.93
2019-02-09T04:48:06.583Z,12.81
2019-02-09T04:50:39.666Z,13.13
2019-02-09T04:53:12.249Z,13.58
2019-02-09T04:55:44.110Z,12.89
2019-02-09T04:58:16.071Z,12.80
2019-02-09T05:00:47.192Z,12.55
2019-02-09T05:03:19.716Z,12.42
2019-02-09T05:05:52.454Z,12.83
2019-02-09T05:08:23.105Z,12.05
2019-02-09T05:10:55.283Z,11.48
2019-02-09T05:13:26.771Z,12.53
2019-02-09T05:15:58.883Z,12.65
2019-02-09T05:18:30.923Z,12.72
2019-02-09T05:21:03.699Z,12.50
2019-02-09T05:23:36.901Z,12.36
2019-02-09T05:26:08.882Z,12.14
2019-02-09T05:28:39.962Z,12.16
2019-02-09T05:31:12.387Z,11.61
2019-02-09T05:33:43.012Z,11.11
2019-02-09T05:36:18.291Z,11.05
2019-02-09T05:38:48.888Z,11.75
2019-02-09T05:41:20.218Z,12.25
2019-02-09T05:43:51.253Z,11.28
2019-02-09T05:46:24.576Z,12.06
2019-02-09T05:48:57.027Z,11.97
2019-02-09T05:51:29.612Z,12.02
2019-02-09T05:54:00.959Z,12.57
2019-02-09T05:56:35.402Z,12.31
2019-02-09T05:59:08.053Z,12.17
2019-02-09T06:01:39.065Z,12.22
2019-02-09T06:04:09.838Z,11.07
2019-02-09T06:06:42.528Z,11.11
2019-02-09T06:09:13.156Z,11.35
2019-02-09T06:11:45.021Z,12.13
2019-02-09T06:14:15.568Z,12.00
2019-02-09T06:16:47.784Z,12.24
2019-02-09T06:19:18.344Z,12.29
2019-02-09T06:21:48.539Z,12.10
2019-02-09T06:24:19.460Z,12.27
2019-02-09T06:26:50.858Z,11.87
2019-02-09T06:29:21.115Z,11.82
2019-02-09T06:31:52.105Z,12.44
2019-02-09T06:34:22.360Z,12.03
2019-02-09T06:36:55.876Z,12.13
2019-02-09T06:39:31.384Z,12.93
2019-02-09T06:42:02.810Z,13.12
2019-02-09T06:44:34.042Z,12.21
2019-02-09T06:47:07.802Z,11.79
2019-02-09T06:49:39.778Z,12.10
2019-02-09T06:52:09.980Z,11.45
2019-02-09T06:54:40.283Z,11.75
2019-02-09T06:57:11.808Z,11.91
2019-02-09T06:59:42.505Z,12.09
2019-02-09T07:02:15.338Z,12.53
2019-02-09T07:04:46.729Z,11.87
2019-02-09T07:07:18.684Z,11.75
2019-02-09T07:09:52.282Z,12.24
2019-02-09T07:12:25.191Z,12.21
2019-02-09T07:14:55.455Z,12.56
2019-02-09T07:17:26.642Z,11.95
2019-02-09T07:19:56.949Z,12.23
2019-02-09T07:22:30.017Z,11.44
2019-02-09T07:25:00.348Z,11.84
2019-02-09T07:27:32.405Z,11.55
2019-02-09T07:30:03.126Z,11.18
2019-02-09T07:32:34.942Z,12.34
2019-02-09T07:35:06.940Z,11.92
2019-02-09T07:37:37.850Z,11.61
2019-02-09T07:40:12.233Z,11.41
2019-02-09T07:42:44.528Z,12.11
2019-02-09T07:45:18.077Z,11.57
2019-02-09T07:47:50.675Z,11.85
2019-02-09T07:50:22.945Z,11.88
2019-02-09T07:52:54.941Z,12.21
2019-02-09T07:55:26.534Z,12.25
2019-02-09T07:57:58.765Z,12.11
2019-02-09T08:00:30.235Z,11.84
2019-02-09T08:03:02.817Z,12.48
2019-02-09T08:05:36.739Z,12.74
2019-02-09T08:08:08.820Z,12.41
2019-02-09T08:10:40.462Z,12.39
2019-02-09T08:13:12.411Z,11.97
2019-02-09T08:15:45.805Z,12.66
2019-02-09T08:18:16.669Z,12.45
2019-02-09T08:20:49.033Z,12.16
2019-02-09T08:23:19.444Z,12.51
2019-02-09T08:25:52.129Z,12.48
2019-02-09T08:28:24.002Z,12.02
2019-02-09T08:30:56.047Z,12.59
2019-02-09T08:33:27.082Z,12.11
2019-02-09T08:35:58.155Z,12.72
2019-02-09T08:38:28.407Z,12.82
2019-02-09T08:40:58.902Z,12.26
2019-02-09T08:43:30.600Z,12.19
2019-02-09T08:46:01.250Z,12.46
2019-02-09T08:48:33.937Z,12.71
2019-02-09T08:51:10.349Z,12.06
2019-02-09T08:53:43.633Z,12.47
2019-02-09T08:56:15.583Z,12.18
2019-02-09T08:58:47.912Z,11.25
2019-02-09T09:01:19.482Z,12.48
2019-02-09T09:03:52.172Z,12.53
2019-02-09T09:06:25.856Z,12.95
2019-02-09T09:08:57.800Z,12.54
2019-02-09T09:11:28.772Z,12.15
2019-02-09T09:14:00.721Z,12.63
2019-02-09T09:16:32.255Z,12.65
2019-02-09T09:19:03.831Z,12.86
2019-02-09T09:21:34.832Z,13.16
2019-02-09T09:24:05.907Z,13.08
2019-02-09T09:26:37.902Z,13.21
2019-02-09T09:29:09.633Z,12.67
2019-02-09T09:31:41.050Z,12.18
2019-02-09T09:34:11.848Z,12.82
2019-02-09T09:36:43.530Z,12.88
2019-02-09T09:39:13.840Z,12.65
2019-02-09T09:41:45.760Z,13.04
2019-02-09T09:44:17.726Z,13.44
2019-02-09T09:46:49.234Z,12.71
2019-02-09T09:49:20.509Z,12.36
2019-02-09T09:51:50.757Z,11.91
2019-02-09T09:54:21.441Z,12.42
2019-02-09T09:56:53.563Z,12.49
2019-02-09T09:59:25.615Z,12.80
2019-02-09T10:01:56.292Z,12.96
2019-02-09T10:04:27.914Z,13.59
2019-02-09T10:06:59.403Z,13.28
2019-02-09T10:09:35.728Z,13.64
2019-02-09T10:12:06.366Z,13.55
2019-02-09T10:14:38.217Z,13.16
2019-02-09T10:17:09.364Z,13.81
2019-02-09T10:19:40.472Z,13.83
2019-02-09T10:22:11.414Z,13.46
2019-02-09T10:24:44.153Z,13.68
2019-02-09T10:27:16.075Z,13.85
2019-02-09T10:29:47.848Z,13.76
2019-02-09T10:32:19.100Z,13.69
2019-02-09T10:34:50.288Z,13.58
2019-02-09T10:37:21.294Z,13.65
2019-02-09T10:39:52.379Z,12.89
2019-02-09T10:42:22.860Z,12.92
2019-02-09T10:44:53.977Z,13.01
2019-02-09T10:47:25.501Z,13.27
2019-02-09T10:49:58.291Z,12.69
2019-02-09T10:52:28.895Z,12.79
2019-02-09T10:54:59.213Z,13.52
2019-02-09T10:57:30.811Z,13.64
2019-02-09T11:00:03.017Z,14.27
2019-02-09T11:02:33.198Z,13.65
2019-02-09T11:05:03.632Z,13.64
2019-02-09T11:07:34.693Z,13.90
2019-02-09T11:10:09.783Z,14.03
2019-02-09T11:12:40.754Z,13.22
2019-02-09T11:15:14.866Z,14.14
2019-02-09T11:17:46.398Z,13.80
2019-02-09T11:20:19.094Z,13.48
2019-02-09T11:22:50.967Z,13.47
2019-02-09T11:25:22.181Z,14.35
2019-02-09T11:27:53.310Z,14.84
2019-02-09T11:30:27.029Z,13.45
2019-02-09T11:33:02.085Z,14.08
2019-02-09T11:35:31.045Z,13.74
2019-02-09T11:38:01.797Z,14.10
2019-02-09T11:40:33.843Z,14.91
2019-02-09T11:43:06.029Z,14.23
2019-02-09T11:45:40.538Z,14.32
2019-02-09T11:48:13.324Z,14.81
2019-02-09T11:50:45.745Z,14.58
2019-02-09T11:53:16.869Z,15.02
2019-02-09T11:55:49.109Z,14.73
2019-02-09T11:58:21.662Z,13.91
2019-02-09T12:00:54.734Z,14.07
2019-02-09T12:03:26.347Z,13.25
2019-02-09T12:05:57.072Z,13.52
2019-02-09T12:08:28.261Z,13.42
2019-02-09T12:10:59.280Z,13.61
2019-02-09T12:13:31.324Z,13.89
2019-02-09T12:16:05.997Z,14.12
2019-02-09T12:18:37.118Z,13.73
2019-02-09T12:21:08.026Z,13.91
2019-02-09T12:23:39.098Z,14.66
2019-02-09T12:26:10.381Z,15.23
2019-02-09T12:28:42.383Z,15.68
2019-02-09T12:31:14.880Z,15.37
2019-02-09T12:33:46.226Z,15.78
2019-02-09T12:36:17.679Z,15.70
2019-02-09T12:38:49.623Z,16.05
2019-02-09T12:41:21.604Z,16.55
2019-02-09T12:43:53.431Z,16.00
2019-02-09T12:46:25.932Z,15.30
2019-02-09T12:48:57.259Z,14.49
2019-02-09T12:51:29.261Z,14.32
2019-02-09T12:54:00.325Z,15.12
2019-02-09T12:56:32.374Z,15.65
2019-02-09T12:59:04.347Z,14.66
2019-02-09T13:01:37.575Z,15.26
2019-02-09T13:04:09.431Z,14.89
2019-02-09T13:06:40.935Z,15.11
2019-02-09T13:09:14.600Z,15.27
2019-02-09T13:11:45.496Z,14.66
2019-02-09T13:14:15.738Z,15.46
2019-02-09T13:16:47.702Z,14.78
2019-02-09T13:19:18.935Z,14.93
2019-02-09T13:21:50.773Z,15.40
2019-02-09T13:24:22.147Z,16.32
2019-02-09T13:26:53.560Z,15.16
2019-02-09T13:29:24.314Z,15.39
2019-02-09T13:31:55.213Z,15.84
2019-02-09T13:34:27.445Z,15.95
2019-02-09T13:36:58.347Z,14.88
2019-02-09T13:39:29.128Z,15.01
2019-02-09T13:41:59.942Z,14.53
2019-02-09T13:44:31.322Z,14.05
2019-02-09T13:47:03.321Z,14.10
2019-02-09T13:49:35.338Z,13.82
2019-02-09T13:52:07.442Z,13.76
2019-02-09T13:54:38.561Z,14.55
2019-02-09T13:57:12.806Z,14.77
2019-02-09T13:59:46.256Z,13.81
2019-02-09T14:02:19.978Z,14.22
2019-02-09T14:04:50.615Z,14.15
2019-02-09T14:07:22.233Z,14.60
2019-02-09T14:09:53.494Z,13.82
2019-02-09T14:12:24.200Z,13.57
2019-02-09T14:14:54.834Z,13.59
2019-02-09T14:17:26.898Z,13.71
2019-02-09T14:19:58.542Z,13.80
2019-02-09T14:22:29.338Z,13.78
2019-02-09T14:25:00.540Z,14.09
2019-02-09T14:27:32.110Z,13.89
2019-02-09T14:30:05.359Z,13.88
2019-02-09T14:32:36.701Z,13.98
2019-02-09T14:35:13.248Z,13.69
2019-02-09T14:37:46.487Z,13.74
2019-02-09T14:40:20.886Z,14.00
2019-02-09T14:42:52.222Z,14.36
2019-02-09T14:45:25.738Z,13.75
2019-02-09T14:47:58.026Z,14.34
2019-02-09T14:50:29.242Z,14.49
2019-02-09T14:53:02.775Z,13.74
2019-02-09T14:55:35.602Z,13.92
2019-02-09T14:58:07.362Z,13.38
2019-02-09T15:00:50.181Z,13.45
2019-02-09T15:03:27.266Z,13.08
2019-02-09T15:05:54.938Z,13.80
2019-02-09T15:08:25.234Z,13.89
2019-02-09T15:10:56.746Z,13.97
2019-02-09T15:13:27.522Z,14.05
2019-02-09T15:16:16.915Z,14.50
2019-02-09T15:18:50.730Z,13.95
2019-02-09T15:21:23.279Z,13.66
2019-02-09T15:23:54.403Z,12.99
2019-02-09T15:26:25.060Z,12.83
2019-02-09T15:28:56.643Z,13.42
2019-02-09T15:31:27.777Z,13.61
2019-02-09T15:34:01.203Z,14.00
2019-02-09T15:36:32.438Z,14.19
2019-02-09T15:39:05.416Z,13.83
2019-02-09T15:41:36.377Z,14.65
2019-02-09T15:44:08.286Z,14.88
2019-02-09T15:46:39.855Z,14.62
2019-02-09T15:49:12.687Z,13.88
2019-02-09T15:51:43.834Z,13.61
2019-02-09T15:54:16.992Z,14.08
2019-02-09T15:56:47.020Z,13.75
2019-02-09T15:59:17.301Z,14.31
2019-02-09T16:01:48.119Z,13.95
2019-02-09T16:04:19.970Z,14.29
2019-02-09T16:06:52.381Z,15.11
2019-02-09T16:09:25.589Z,14.21
2019-02-09T16:11:56.774Z,14.91
2019-02-09T16:14:27.878Z,14.23
2019-02-09T16:16:59.787Z,14.59
2019-02-09T16:19:38.604Z,14.28
2019-02-09T16:22:11.027Z,14.49
2019-02-09T16:24:58.572Z,14.28
2019-02-09T16:27:31.133Z,14.14
2019-02-09T16:30:01.783Z,14.26
2019-02-09T16:32:34.299Z,13.98
2019-02-09T16:35:06.739Z,14.93
2019-02-09T16:37:38.366Z,14.19
2019-02-09T16:40:15.149Z,14.33
2019-02-09T16:42:50.299Z,14.89
2019-02-09T16:45:23.757Z,13.96
2019-02-09T16:47:53.962Z,14.16
2019-02-09T16:50:24.703Z,14.54
2019-02-09T16:52:54.917Z,14.97
2019-02-09T16:55:26.071Z,14.33
2019-02-09T16:57:56.385Z,14.44
2019-02-09T17:00:31.893Z,14.73
2019-02-09T17:03:02.431Z,14.44
2019-02-09T17:05:33.162Z,14.55
2019-02-09T17:08:05.985Z,14.83
2019-02-09T17:10:36.746Z,14.51
2019-02-09T17:13:07.472Z,14.94
2019-02-09T17:15:37.967Z,15.52
2019-02-09T17:18:12.460Z,14.85
2019-02-09T17:20:43.896Z,14.22
2019-02-09T17:23:17.282Z,14.00
2019-02-09T17:25:54.172Z,14.59
2019-02-09T17:28:26.360Z,14.07
2019-02-09T17:30:58.437Z,14.74
2019-02-09T17:33:33.986Z,14.35
2019-02-09T17:36:06.806Z,14.67
2019-02-09T17:38:38.213Z,14.61
2019-02-09T17:41:11.059Z,14.56
2019-02-09T17:43:44.020Z,13.37
2019-02-09T17:46:16.404Z,14.71
2019-02-09T17:48:47.093Z,14.95
2019-02-09T17:51:18.898Z,14.39
2019-02-09T17:53:50.720Z,15.01
2019-02-09T17:56:23.893Z,14.60
2019-02-09T17:58:54.639Z,14.65
2019-02-09T18:01:24.958Z,14.05
2019-02-09T18:03:56.095Z,14.74
2019-02-09T18:06:27.765Z,15.02
2019-02-09T18:08:58.812Z,14.72
2019-02-09T18:11:30.352Z,14.36
2019-02-09T18:14:01.070Z,14.95
2019-02-09T18:16:31.717Z,14.29
2019-02-09T18:19:01.953Z,15.08
2019-02-09T18:21:33.322Z,14.72
2019-02-09T18:24:04.096Z,14.52
2019-02-09T18:26:35.667Z,14.67
2019-02-09T18:29:06.296Z,14.66
2019-02-09T18:31:38.226Z,14.51
2019-02-09T18:34:09.345Z,13.74
2019-02-09T18:36:39.568Z,13.95
2019-02-09T18:39:12.685Z,14.48
2019-02-09T18:41:44.703Z,14.31
2019-02-09T18:44:15.902Z,14.14
2019-02-09T18:46:46.609Z,13.75
2019-02-09T18:49:17.195Z,14.26
2019-02-09T18:51:47.402Z,14.84
2019-02-09T18:54:18.446Z,14.73
2019-02-09T18:56:50.467Z,14.44
2019-02-09T18:59:20.720Z,14.30
2019-02-09T19:01:52.101Z,15.11
2019-02-09T19:04:22.303Z,14.86
2019-02-09T19:06:53.978Z,15.61
2019-02-09T19:09:24.268Z,15.58
2019-02-09T19:11:54.513Z,15.83
2019-02-09T19:14:26.595Z,16.05
2019-02-09T19:16:57.906Z,15.91
2019-02-09T19:19:28.236Z,16.00
2019-02-09T19:21:58.554Z,16.16
2019-02-09T19:24:28.856Z,15.94
2019-02-09T19:26:59.617Z,16.19
2019-02-09T19:29:31.350Z,16.12
2019-02-09T19:32:01.601Z,16.19
2019-02-09T19:34:33.381Z,16.13
2019-02-09T19:37:05.630Z,15.76
2019-02-09T19:39:36.716Z,16.08
2019-02-09T19:42:08.270Z,15.74
2019-02-09T19:44:40.396Z,15.74
2019-02-09T19:47:11.460Z,15.68
2019-02-09T19:49:43.546Z,15.95
2019-02-09T19:52:16.151Z,15.50
2019-02-09T19:54:47.945Z,15.67
2019-02-09T19:57:21.591Z,15.48
2019-02-09T19:59:54.474Z,15.64
2019-02-09T20:02:25.616Z,15.23
2019-02-09T20:04:56.688Z,14.92
2019-02-09T20:07:28.536Z,15.19
2019-02-09T20:09:59.691Z,15.11
2019-02-09T20:12:29.996Z,15.16
2019-02-09T20:15:03.809Z,15.29
2019-02-09T20:17:37.632Z,15.40
2019-02-09T20:20:10.699Z,15.27
2019-02-09T20:22:42.720Z,15.04
2019-02-09T20:25:16.862Z,15.35
2019-02-09T20:27:50.100Z,15.03
2019-02-09T20:30:32.177Z,14.83
2019-02-09T20:33:03.366Z,14.23
2019-02-09T20:35:33.588Z,14.83
2019-02-09T20:38:05.464Z,14.75
2019-02-09T20:40:42.206Z,14.75
2019-02-09T20:43:15.175Z,14.76
2019-02-09T20:45:51.066Z,14.24
2019-02-09T20:48:23.075Z,14.72
2019-02-09T20:50:53.753Z,15.20
2019-02-09T20:53:24.587Z,15.40
2019-02-09T20:55:54.809Z,15.09
2019-02-09T20:58:25.832Z,15.38
2019-02-09T21:00:58.273Z,15.51
2019-02-09T21:03:29.817Z,15.40
2019-02-09T21:06:01.319Z,15.30
2019-02-09T21:08:33.006Z,15.15
2019-02-09T21:11:04.510Z,15.70
2019-02-09T21:13:35.982Z,15.10
2019-02-09T21:16:09.071Z,15.20
2019-02-09T21:18:40.973Z,15.13
2019-02-09T21:21:12.522Z,15.29
2019-02-09T21:23:43.999Z,15.55
2019-02-09T21:26:15.052Z,15.32
2019-02-09T21:28:46.110Z,15.15
2019-02-09T21:31:17.274Z,15.31
2019-02-09T21:33:48.914Z,15.31
2019-02-09T21:36:20.363Z,15.60
2019-02-09T21:38:53.067Z,15.16
2019-02-09T21:41:25.137Z,15.41
2019-02-09T21:43:55.887Z,15.38
2019-02-09T21:46:27.505Z,15.04
2019-02-09T21:48:58.265Z,15.31
2019-02-09T21:51:29.463Z,15.38
2019-02-09T21:54:00.786Z,15.62
2019-02-09T21:56:32.467Z,15.66
2019-02-09T21:59:05.059Z,15.37
2019-02-09T22:01:37.057Z,15.33
2019-02-09T22:04:08.082Z,15.57
2019-02-09T22:06:39.551Z,15.30
2019-02-09T22:09:10.461Z,15.22
2019-02-09T22:11:40.724Z,15.52
2019-02-09T22:14:12.017Z,15.42
2019-02-09T22:16:42.788Z,15.30
2019-02-09T22:19:13.009Z,15.32
2019-02-09T22:21:44.261Z,15.08
2019-02-09T22:24:15.477Z,15.05
2019-02-09T22:26:47.272Z,15.38
2019-02-09T22:29:18.289Z,15.21
2019-02-09T22:31:50.911Z,14.46
2019-02-09T22:34:23.029Z,14.92
2019-02-09T22:36:55.748Z,14.84
2019-02-09T22:39:25.994Z,15.02
2019-02-09T22:41:58.104Z,14.86
2019-02-09T22:44:28.696Z,15.29
2019-02-09T22:47:02.397Z,15.59
2019-02-09T22:49:32.688Z,15.22
2019-02-09T22:52:03.384Z,15.47
2019-02-09T22:54:34.978Z,15.49
2019-02-09T22:57:06.430Z,15.01
2019-02-09T22:59:38.684Z,15.11
2019-02-09T23:02:10.181Z,15.43
2019-02-09T23:05:27.355Z,15.31
2019-02-09T23:08:04.347Z,15.31
2019-02-09T23:10:35.322Z,15.67
2019-02-09T23:13:07.943Z,15.22
2019-02-09T23:15:39.092Z,15.20
2019-02-09T23:18:09.309Z,15.29
2019-02-09T23:20:39.512Z,15.47
2019-02-09T23:23:10.642Z,15.06
2019-02-09T23:25:42.418Z,15.09
2019-02-09T23:28:13.362Z,15.10
2019-02-09T23:30:44.621Z,15.13
2019-02-09T23:33:16.303Z,15.36
2019-02-09T23:35:47.405Z,15.41
2019-02-09T23:38:19.575Z,15.38
2019-02-09T23:40:49.982Z,15.00
2019-02-09T23:43:20.682Z,15.22
2019-02-09T23:45:51.801Z,15.68
2019-02-09T23:48:22.462Z,15.68
2019-02-09T23:50:53.571Z,15.53
2019-02-09T23:53:25.599Z,15.43
2019-02-09T23:55:56.866Z,15.64
2019-02-09T23:58:27.110Z,15.89
